createdAt,value
2018-08-25T00:00:43.092Z,3.80
2018-08-25T00:03:15.612Z,3.60
2018-08-25T00:05:48.323Z,2.30
2018-08-25T00:08:20.305Z,3.25
2018-08-25T00:10:53.404Z,3.35
2018-08-25T00:13:26.100Z,2.60
2018-08-25T00:16:00.227Z,2.08
2018-08-25T00:18:32.130Z,2.85
2018-08-25T00:21:05.209Z,3.50
2018-08-25T00:23:36.218Z,3.60
2018-08-25T00:26:15.951Z,2.62
2018-08-25T00:28:48.899Z,3.22
2018-08-25T00:31:23.738Z,1.85
2018-08-25T00:34:00.249Z,2.90
2018-08-25T00:36:36.017Z,3.27
2018-08-25T00:39:14.336Z,3.37
2018-08-25T00:41:52.496Z,3.00
2018-08-25T00:44:26.452Z,3.90
2018-08-25T00:46:56.526Z,2.50
2018-08-25T00:49:26.803Z,2.55
2018-08-25T00:51:58.517Z,3.40
2018-08-25T00:54:29.304Z,3.80
2018-08-25T00:57:00.274Z,4.35
2018-08-25T00:59:32.115Z,3.87
2018-08-25T01:02:04.664Z,3.12
2018-08-25T01:04:40.033Z,3.87
2018-08-25T01:07:10.248Z,4.40
2018-08-25T01:09:42.889Z,4.40
2018-08-25T01:12:15.913Z,1.80
2018-08-25T01:14:46.237Z,4.62
2018-08-25T01:17:20.283Z,4.62
2018-08-25T01:19:50.436Z,4.28
2018-08-25T01:22:21.472Z,3.17
2018-08-25T01:24:54.247Z,4.15
2018-08-25T01:27:24.979Z,4.67
2018-08-25T01:29:55.114Z,4.55
2018-08-25T01:32:25.826Z,3.87
2018-08-25T01:34:56.268Z,5.35
2018-08-25T01:37:29.198Z,5.50
2018-08-25T01:40:01.118Z,2.45
2018-08-25T01:42:32.990Z,6.25
2018-08-25T01:45:03.784Z,3.40
2018-08-25T01:47:35.148Z,5.40
2018-08-25T01:50:05.409Z,4.30
2018-08-25T01:52:38.412Z,4.87
2018-08-25T01:55:09.359Z,4.22
2018-08-25T01:57:42.135Z,4.25
2018-08-25T02:00:13.286Z,2.85
2018-08-25T02:02:43.481Z,3.77
2018-08-25T02:05:14.945Z,4.80
2018-08-25T02:07:46.551Z,3.62
2018-08-25T02:10:17.525Z,4.75
2018-08-25T02:12:48.370Z,3.85
2018-08-25T02:15:19.373Z,3.58
2018-08-25T02:17:53.435Z,3.95
2018-08-25T02:20:25.788Z,5.40
2018-08-25T02:22:59.332Z,4.72
2018-08-25T02:25:35.228Z,5.17
2018-08-25T02:28:06.068Z,4.75
2018-08-25T02:30:39.381Z,4.72
2018-08-25T02:33:12.723Z,4.42
2018-08-25T02:35:44.596Z,4.85
2018-08-25T02:38:19.238Z,4.80
2018-08-25T02:40:50.272Z,4.70
2018-08-25T02:43:24.208Z,4.97
2018-08-25T02:45:55.736Z,4.50
2018-08-25T02:48:27.249Z,4.95
2018-08-25T02:50:57.997Z,4.45
2018-08-25T02:53:28.401Z,2.50
2018-08-25T02:56:00.984Z,4.30
2018-08-25T02:58:33.198Z,4.70
2018-08-25T03:01:02.926Z,3.62
2018-08-25T03:03:34.522Z,4.00
2018-08-25T03:06:04.543Z,2.87
2018-08-25T03:08:34.907Z,4.50
2018-08-25T03:11:05.535Z,4.80
2018-08-25T03:13:36.611Z,4.65
2018-08-25T03:16:08.181Z,3.77
2018-08-25T03:18:38.554Z,4.28
2018-08-25T03:21:09.076Z,3.95
2018-08-25T03:23:41.201Z,4.42
2018-08-25T03:26:13.657Z,4.75
2018-08-25T03:28:44.001Z,4.55
2018-08-25T03:31:19.609Z,2.92
2018-08-25T03:37:00.744Z,3.40
2018-08-25T03:39:34.029Z,4.30
2018-08-25T03:42:05.500Z,3.98
2018-08-25T03:44:38.337Z,3.92
2018-08-25T03:47:10.119Z,4.67
2018-08-25T03:49:41.965Z,4.50
2018-08-25T03:52:13.653Z,4.30
2018-08-25T03:54:46.448Z,3.72
2018-08-25T03:57:18.691Z,4.47
2018-08-25T03:59:50.689Z,4.30
2018-08-25T04:02:23.545Z,2.02
2018-08-25T04:04:56.524Z,3.92
2018-08-25T04:07:31.904Z,3.95
2018-08-25T04:10:03.735Z,3.77
2018-08-25T04:12:34.846Z,3.77
2018-08-25T04:15:06.204Z,3.55
2018-08-25T04:17:40.359Z,3.75
2018-08-25T04:20:19.509Z,3.65
2018-08-25T04:22:54.380Z,4.20
2018-08-25T04:25:29.077Z,4.15
2018-08-25T04:28:02.243Z,4.15
2018-08-25T04:30:34.612Z,3.90
2018-08-25T04:33:09.200Z,4.33
2018-08-25T04:35:41.060Z,3.00
2018-08-25T04:38:17.321Z,4.10
2018-08-25T04:40:52.029Z,3.15
2018-08-25T04:43:22.237Z,3.72
2018-08-25T04:45:52.379Z,3.20
2018-08-25T04:48:23.018Z,3.90
2018-08-25T04:50:54.781Z,4.00
2018-08-25T04:53:26.111Z,3.72
2018-08-25T04:55:58.270Z,3.65
2018-08-25T04:58:29.760Z,3.42
2018-08-25T05:01:04.022Z,3.92
2018-08-25T05:03:34.184Z,3.58
2018-08-25T05:06:05.133Z,3.87
2018-08-25T05:08:35.301Z,4.08
2018-08-25T05:11:07.239Z,3.35
2018-08-25T05:13:38.137Z,3.60
2018-08-25T05:16:08.222Z,3.47
2018-08-25T05:18:40.909Z,3.87
2018-08-25T05:21:12.924Z,3.90
2018-08-25T05:23:45.367Z,2.85
2018-08-25T05:26:17.835Z,3.50
2018-08-25T05:28:52.714Z,3.60
2018-08-25T05:31:22.964Z,3.15
2018-08-25T05:33:55.358Z,3.08
2018-08-25T05:36:27.014Z,2.42
2018-08-25T05:39:00.948Z,3.90
2018-08-25T05:41:32.198Z,8.50
2018-08-25T05:44:03.646Z,2.10
2018-08-25T05:46:34.553Z,3.52
2018-08-25T05:49:05.187Z,2.37
2018-08-25T05:51:37.660Z,3.98
2018-08-25T05:54:08.499Z,3.92
2018-08-25T05:56:38.692Z,4.30
2018-08-25T05:59:09.021Z,3.87
2018-08-25T06:01:39.646Z,2.70
2018-08-25T06:04:09.914Z,3.75
2018-08-25T06:06:41.528Z,3.67
2018-08-25T06:09:14.026Z,2.33
2018-08-25T06:11:46.053Z,3.40
2018-08-25T06:14:18.063Z,3.17
2018-08-25T06:16:48.586Z,2.42
2018-08-25T06:19:20.680Z,2.80
2018-08-25T06:21:51.864Z,3.52
2018-08-25T06:24:23.676Z,3.60
2018-08-25T06:26:53.868Z,3.30
2018-08-25T06:29:24.089Z,2.47
2018-08-25T06:31:55.971Z,2.50
2018-08-25T06:34:26.363Z,3.83
2018-08-25T06:38:54.678Z,3.20
2018-08-25T06:41:27.918Z,3.40
2018-08-25T06:43:58.898Z,2.15
2018-08-25T06:46:30.860Z,2.35
2018-08-25T06:49:02.254Z,3.00
2018-08-25T06:51:33.351Z,3.55
2018-08-25T06:54:05.310Z,2.52
2018-08-25T06:56:48.144Z,3.02
2018-08-25T06:59:22.822Z,2.92
2018-08-25T07:01:55.445Z,3.50
2018-08-25T07:04:27.070Z,2.15
2018-08-25T07:06:58.263Z,2.65
2018-08-25T07:09:29.056Z,2.17
2018-08-25T07:12:00.099Z,3.65
2018-08-25T07:14:31.934Z,3.80
2018-08-25T07:17:02.072Z,2.87
2018-08-25T07:19:33.317Z,2.15
2018-08-25T07:22:06.386Z,3.60
2018-08-25T07:24:37.401Z,3.85
2018-08-25T07:27:09.118Z,3.15
2018-08-25T07:29:42.757Z,3.85
2018-08-25T07:32:13.189Z,3.12
2018-08-25T07:34:44.429Z,3.27
2018-08-25T07:37:14.706Z,3.22
2018-08-25T07:39:46.919Z,3.10
2018-08-25T07:42:18.821Z,3.58
2018-08-25T07:44:49.381Z,3.47
2018-08-25T07:47:19.661Z,2.35
2018-08-25T07:49:55.514Z,3.35
2018-08-25T07:52:27.177Z,1.65
2018-08-25T07:54:57.528Z,3.30
2018-08-25T07:57:28.873Z,2.12
2018-08-25T08:01:17.392Z,3.02
2018-08-25T08:03:48.823Z,2.77
2018-08-25T08:06:20.216Z,3.00
2018-08-25T08:08:51.802Z,2.33
2018-08-25T08:11:23.756Z,3.67
2018-08-25T08:13:53.929Z,2.65
2018-08-25T08:16:24.889Z,2.90
2018-08-25T08:18:55.196Z,2.22
2018-08-25T08:21:25.838Z,2.08
2018-08-25T08:23:58.121Z,2.80
2018-08-25T08:26:28.319Z,3.77
2018-08-25T08:28:59.623Z,4.20
2018-08-25T08:31:30.114Z,2.62
2018-08-25T08:34:00.369Z,3.55
2018-08-25T08:36:31.772Z,3.22
2018-08-25T08:39:02.092Z,4.20
2018-08-25T08:41:34.112Z,4.22
2018-08-25T08:44:28.914Z,3.72
2018-08-25T08:47:00.627Z,3.92
2018-08-25T08:49:30.785Z,4.30
2018-08-25T08:52:01.596Z,4.33
2018-08-25T08:54:31.890Z,4.35
2018-08-25T08:57:04.387Z,4.15
2018-08-25T08:59:40.427Z,2.90
2018-08-25T09:02:16.439Z,4.40
2018-08-25T09:04:49.111Z,4.17
2018-08-25T09:07:24.022Z,2.77
2018-08-25T09:09:57.209Z,2.95
2018-08-25T09:12:28.833Z,4.47
2018-08-25T09:15:07.611Z,3.12
2018-08-25T09:17:42.370Z,4.00
2018-08-25T09:26:15.484Z,3.77
2018-08-25T09:30:45.790Z,3.10
2018-08-25T09:33:31.698Z,3.25
2018-08-25T09:36:03.953Z,3.75
2018-08-25T09:38:34.882Z,3.72
2018-08-25T09:41:10.264Z,4.70
2018-08-25T09:43:41.373Z,1.98
2018-08-25T09:46:15.081Z,3.85
2018-08-25T09:48:45.188Z,3.00
2018-08-25T09:51:16.512Z,3.50
2018-08-25T09:53:46.705Z,3.55
2018-08-25T09:56:16.873Z,3.33
2018-08-25T09:58:50.149Z,3.27
2018-08-25T10:01:27.184Z,3.52
2018-08-25T10:03:59.234Z,2.65
2018-08-25T10:06:38.838Z,2.08
2018-08-25T10:09:12.887Z,3.70
2018-08-25T10:11:54.923Z,2.92
2018-08-25T10:14:35.281Z,3.55
2018-08-25T10:17:14.066Z,3.20
2018-08-25T10:19:47.423Z,3.62
2018-08-25T10:22:28.965Z,3.15
2018-08-25T10:27:41.963Z,3.10
2018-08-25T10:30:15.897Z,3.70
2018-08-25T10:32:49.030Z,3.45
2018-08-25T10:35:19.550Z,3.90
2018-08-25T10:37:55.845Z,3.65
2018-08-25T10:40:26.209Z,4.03
2018-08-25T10:42:58.520Z,3.33
2018-08-25T10:45:28.973Z,3.30
2018-08-25T10:48:00.516Z,3.35
2018-08-25T10:50:31.370Z,3.77
2018-08-25T10:53:03.679Z,2.85
2018-08-25T10:55:37.128Z,3.60
2018-08-25T10:58:07.441Z,3.80
2018-08-25T11:00:38.466Z,4.30
2018-08-25T11:03:09.032Z,3.95
2018-08-25T11:05:40.166Z,4.03
2018-08-25T11:08:11.233Z,3.95
2018-08-25T11:10:45.440Z,3.75
2018-08-25T11:13:15.677Z,4.12
2018-08-25T11:15:46.565Z,4.30
2018-08-25T11:18:17.505Z,4.05
2018-08-25T11:23:46.606Z,4.55
2018-08-25T11:26:25.767Z,4.40
2018-08-25T11:42:08.411Z,5.90
2018-08-25T11:44:40.907Z,4.50
2018-08-25T11:47:16.067Z,3.70
2018-08-25T11:49:48.190Z,2.83
2018-08-25T11:52:20.344Z,4.78
2018-08-25T11:54:52.154Z,4.70
2018-08-25T11:57:23.334Z,5.30
2018-08-25T11:59:56.595Z,4.60
2018-08-25T12:02:28.108Z,5.08
2018-08-25T12:04:58.426Z,3.05
2018-08-25T12:07:28.570Z,5.10
2018-08-25T12:09:58.767Z,6.30
2018-08-25T12:12:29.619Z,5.55
2018-08-25T12:15:00.836Z,7.25
2018-08-25T12:17:36.991Z,5.65
2018-08-25T12:20:10.385Z,4.80
2018-08-25T12:25:46.181Z,5.87
2018-08-25T12:28:17.221Z,4.40
2018-08-25T12:30:47.607Z,6.20
2018-08-25T12:33:20.278Z,6.45
2018-08-25T12:35:53.943Z,7.03
2018-08-25T12:38:28.462Z,6.95
2018-08-25T12:40:58.820Z,6.92
2018-08-25T12:43:29.403Z,7.78
2018-08-25T12:45:59.878Z,10.03
2018-08-25T12:48:30.055Z,9.08
2018-08-25T12:51:02.587Z,5.40
2018-08-25T12:53:33.761Z,5.87
2018-08-25T12:56:05.461Z,4.58
2018-08-25T12:58:37.599Z,3.40
2018-08-25T13:01:08.324Z,5.03
2018-08-25T13:03:39.637Z,5.28
2018-08-25T13:06:10.440Z,5.40
2018-08-25T13:08:40.910Z,4.55
2018-08-25T13:11:51.051Z,4.45
2018-08-25T13:14:21.937Z,5.40
2018-08-25T13:16:52.363Z,5.08
2018-08-25T13:19:22.885Z,5.22
2018-08-25T13:21:53.517Z,5.92
2018-08-25T13:24:23.852Z,5.90
2018-08-25T13:26:54.044Z,7.80
2018-08-25T13:29:24.982Z,7.80
2018-08-25T13:31:55.685Z,11.05
2018-08-25T13:34:26.806Z,3.87
2018-08-25T13:36:57.804Z,5.83
2018-08-25T13:39:27.995Z,2.50
2018-08-25T13:42:02.696Z,6.37
2018-08-25T13:44:33.199Z,4.62
2018-08-25T13:47:04.141Z,2.80
2018-08-25T13:49:34.956Z,3.27
2018-08-25T13:52:06.904Z,3.72
2018-08-25T13:54:38.364Z,4.15
2018-08-25T13:57:09.712Z,2.95
2018-08-25T13:59:40.660Z,3.60
2018-08-25T14:02:11.913Z,3.95
2018-08-25T14:04:43.040Z,4.40
2018-08-25T14:07:13.054Z,4.12
2018-08-25T14:09:44.883Z,4.87
2018-08-25T14:12:15.804Z,4.53
2018-08-25T14:14:46.506Z,4.65
2018-08-25T14:17:18.880Z,4.12
2018-08-25T14:19:49.206Z,4.55
2018-08-25T14:22:19.609Z,5.22
2018-08-25T14:24:50.146Z,5.60
2018-08-25T14:27:21.462Z,5.58
2018-08-25T14:29:51.920Z,4.58
2018-08-25T14:32:22.418Z,6.05
2018-08-25T14:34:52.918Z,6.05
2018-08-25T14:37:25.049Z,4.42
2018-08-25T14:39:55.460Z,4.87
2018-08-25T14:42:27.450Z,5.80
2018-08-25T14:44:58.445Z,6.92
2018-08-25T14:47:30.015Z,5.15
2018-08-25T14:50:00.225Z,5.70
2018-08-25T14:52:30.480Z,5.47
2018-08-25T14:55:00.664Z,5.70
2018-08-25T14:57:31.200Z,5.20
2018-08-25T15:00:02.450Z,4.50
2018-08-25T15:04:54.019Z,4.17
2018-08-25T15:07:25.153Z,5.20
2018-08-25T15:09:55.857Z,4.75
2018-08-25T15:12:26.197Z,4.47
2018-08-25T15:14:57.325Z,5.15
2018-08-25T15:17:28.790Z,6.67
2018-08-25T15:20:01.347Z,6.80
2018-08-25T15:22:32.383Z,5.00
2018-08-25T15:25:03.954Z,6.08
2018-08-25T15:27:34.518Z,6.08
2018-08-25T15:30:07.994Z,6.70
2018-08-25T15:32:40.663Z,6.92
2018-08-25T15:35:10.889Z,5.53
2018-08-25T15:37:42.565Z,6.22
2018-08-25T15:40:13.558Z,8.05
2018-08-25T15:42:43.889Z,7.87
2018-08-25T15:54:52.683Z,6.60
2018-08-25T15:57:36.995Z,6.87
2018-08-25T16:03:53.065Z,4.60
2018-08-25T16:06:26.053Z,3.60
2018-08-25T16:08:56.433Z,4.03
2018-08-25T16:11:28.021Z,3.87
2018-08-25T16:14:00.360Z,3.42
2018-08-25T16:16:30.940Z,3.00
2018-08-25T16:19:01.391Z,3.12
2018-08-25T16:21:35.070Z,3.42
2018-08-25T16:24:06.212Z,4.65
2018-08-25T16:26:38.556Z,5.75
2018-08-25T16:29:09.048Z,3.12
2018-08-25T16:31:41.937Z,3.72
2018-08-25T16:34:14.550Z,5.67
2018-08-25T16:40:09.282Z,4.30
2018-08-25T16:54:55.765Z,2.72
2018-08-25T17:03:54.060Z,1.40
2018-08-25T17:06:35.684Z,1.75
2018-08-25T17:09:22.678Z,2.58
2018-08-25T17:12:19.348Z,1.40
2018-08-25T17:15:18.105Z,1.20
2018-08-25T18:03:05.880Z,2.10
2018-08-25T18:30:43.806Z,1.15
2018-08-25T18:33:14.672Z,1.47
2018-08-25T18:35:48.083Z,1.32
2018-08-25T18:38:19.887Z,1.20
2018-08-25T18:40:56.451Z,1.12
2018-08-25T18:43:27.330Z,1.70
2018-08-25T18:45:57.699Z,1.37
2018-08-25T18:48:29.997Z,1.50
2018-08-25T18:51:01.603Z,0.90
2018-08-25T18:53:34.961Z,1.50
2018-08-25T18:59:18.739Z,1.20
2018-08-25T19:01:54.129Z,1.47
2018-08-25T19:04:30.851Z,1.42
2018-08-25T19:07:01.434Z,1.77
2018-08-25T19:09:39.908Z,1.72
2018-08-25T19:12:11.666Z,1.07
2018-08-25T19:14:43.018Z,1.47
2018-08-25T19:17:14.452Z,2.10
2018-08-25T19:19:47.023Z,2.12
2018-08-25T19:22:18.025Z,1.47
2018-08-25T19:24:49.902Z,2.90
2018-08-25T19:27:22.841Z,1.30
2018-08-25T19:30:13.313Z,1.60
2018-08-25T19:32:44.744Z,1.70
2018-08-25T19:35:16.774Z,1.27
2018-08-25T19:37:47.712Z,1.30
2018-08-25T19:40:18.824Z,1.90
2018-08-25T19:42:49.110Z,1.72
2018-08-25T19:45:19.752Z,1.50
2018-08-25T19:47:52.199Z,1.82
2018-08-25T19:50:23.077Z,1.42
2018-08-25T19:52:58.038Z,1.30
2018-08-25T19:55:31.045Z,1.30
2018-08-25T19:58:03.061Z,1.40
2018-08-25T20:00:36.923Z,1.17
2018-08-25T20:03:09.743Z,1.42
2018-08-25T20:05:40.687Z,1.05
2018-08-25T20:08:33.026Z,1.77
2018-08-25T20:11:11.635Z,1.87
2018-08-25T20:13:46.132Z,1.70
2018-08-25T20:16:23.637Z,1.52
2018-08-25T20:18:54.968Z,1.80
2018-08-25T20:21:32.482Z,1.87
2018-08-25T20:24:03.653Z,2.08
2018-08-25T21:11:41.352Z,1.80
2018-08-25T21:14:14.209Z,1.67
2018-08-25T21:16:47.211Z,0.98
2018-08-25T21:19:19.686Z,1.52
2018-08-25T21:21:52.933Z,1.75
2018-08-25T21:24:37.498Z,1.40
2018-08-25T21:27:13.109Z,1.52
2018-08-25T21:29:52.826Z,1.70
2018-08-25T21:32:23.992Z,1.30
2018-08-25T21:34:54.966Z,1.00
2018-08-25T21:37:25.919Z,1.22
2018-08-25T21:43:08.132Z,1.15
2018-08-25T21:45:39.327Z,1.20
2018-08-25T21:48:10.062Z,1.40
2018-08-25T21:50:40.317Z,1.30
2018-08-25T21:53:11.670Z,1.32
2018-08-25T21:55:41.853Z,0.95
2018-08-25T21:58:12.674Z,1.30
2018-08-25T22:00:47.859Z,1.35
2018-08-25T22:03:20.237Z,1.80
2018-08-25T22:05:54.142Z,1.05
2018-08-25T22:08:30.078Z,1.20
2018-08-25T22:11:00.664Z,1.27
2018-08-25T22:13:31.433Z,1.20
2018-08-25T22:16:02.324Z,1.30
2018-08-25T22:18:34.363Z,1.72
2018-08-25T22:21:07.154Z,1.37
2018-08-25T22:23:37.265Z,1.27
2018-08-25T22:26:07.587Z,1.40
2018-08-25T22:28:37.764Z,1.72
2018-08-25T22:31:08.751Z,4.37
2018-08-25T22:33:39.021Z,1.40
2018-08-25T22:36:09.234Z,3.25
2018-08-25T22:38:40.854Z,2.52
2018-08-25T22:41:11.102Z,1.65
2018-08-25T22:43:41.330Z,1.20
2018-08-25T22:46:11.572Z,1.20
2018-08-25T22:49:53.931Z,1.22
2018-08-25T22:52:30.551Z,1.40
2018-08-25T22:55:03.544Z,1.25
2018-08-25T22:57:36.105Z,1.22
2018-08-25T23:00:07.196Z,1.00
2018-08-25T23:02:37.410Z,2.83
2018-08-25T23:05:07.701Z,1.17
2018-08-25T23:07:38.485Z,0.90
2018-08-25T23:10:09.486Z,1.42
2018-08-25T23:12:42.244Z,1.50
2018-08-25T23:15:12.730Z,1.32
2018-08-25T23:17:43.117Z,1.20
2018-08-25T23:20:13.435Z,1.52
2018-08-25T23:22:43.615Z,1.52
2018-08-25T23:25:15.227Z,1.60
2018-08-25T23:27:46.301Z,1.10
2018-08-25T23:30:18.483Z,1.10
2018-08-25T23:32:53.270Z,2.67
2018-08-25T23:35:23.728Z,1.30
2018-08-25T23:37:53.732Z,1.40
2018-08-25T23:40:27.009Z,1.60
2018-08-25T23:42:58.593Z,1.47
2018-08-25T23:45:30.626Z,1.35
2018-08-25T23:48:00.820Z,1.45
2018-08-25T23:50:30.919Z,1.20
2018-08-25T23:53:02.426Z,1.05
2018-08-25T23:55:33.256Z,1.37
2018-08-25T23:58:04.305Z,1.52
